»·PEaware :: N36644 KGCN-KHII

N36644 :: KGCN-KHII

FLIGHT INFORMATION

Flight Status: Arrived
Operator: Privately registered:
United States
More flights under this callsign
Pilot: Kim B. (19519)
Aircraft: MCDONNELL-DOUGLAS SKYTRAIN C-47
(DC3)
More flights by this aircraft type
Origin: KGCN Grand Canyon Natl Park
United States
Destination: KHII Lake Havasu City
United States
More flights between these airports :: More routes between these airports
Route: PARKS4 PGS V208 EED
File this flight plan on PilotEdge
Remarks:
Altitude:
(Current/Filed)
10,000ft
Speed:
(Current/Filed)
140kts
Departed: 29-Sep-18 03:04 PM
Arrived: 29-Sep-18 04:07 PM
Distance/Time
Traveled:
137nm/1:03
Distance/Time
To Go:
Arrived

Flight Plot

Page will automatically refresh every two minutes.

Flight plan parsing failed; only flown route is shown


Map Options




Map Legend


Flown Route
Filed Route
Departure Airport
Arrival Airport
Navaid (VOR, NDB)
Fix

Horizontal Profiles

Position Reports

Time Latitude Longitude Heading Altitude Ground
Speed
29-Sep-18 14:38 35.959905 -112.136738 37 6625ft 0kts
29-Sep-18 14:39 35.959905 -112.136738 37 6625ft 0kts
29-Sep-18 14:40 35.959905 -112.136738 37 6625ft 0kts
29-Sep-18 14:41 35.959905 -112.136738 37 6625ft 0kts
29-Sep-18 14:42 35.959905 -112.136738 37 6625ft 0kts
29-Sep-18 14:43 35.959905 -112.136738 37 6625ft 0kts
29-Sep-18 14:44 35.959905 -112.136738 37 6625ft 0kts
29-Sep-18 14:45 35.959905 -112.136738 37 6625ft 0kts
29-Sep-18 14:46 35.959905 -112.136738 37 6625ft 0kts
29-Sep-18 14:47 35.959905 -112.136738 37 6625ft 0kts
29-Sep-18 14:48 35.959905 -112.136738 37 6625ft 0kts
29-Sep-18 14:49 35.959905 -112.136738 37 6625ft 0kts
29-Sep-18 14:50 35.959905 -112.136738 37 6625ft 0kts
29-Sep-18 14:51 35.959905 -112.136738 37 6625ft 0kts
29-Sep-18 14:57 35.959905 -112.136738 37 6625ft 0kts
29-Sep-18 14:58 35.959905 -112.136738 37 6625ft 0kts
29-Sep-18 14:59 35.959905 -112.136738 37 6625ft 0kts
29-Sep-18 15:00 35.959905 -112.136738 37 6625ft 0kts
29-Sep-18 15:01 35.959905 -112.136738 37 6625ft 0kts
29-Sep-18 15:02 35.960351 -112.136738 12 6625ft 8kts
29-Sep-18 15:03 35.961038 -112.136361 329 6627ft 0kts
29-Sep-18 15:04 35.961051 -112.136370 327 6627ft 1kts
29-Sep-18 15:05 35.961308 -112.137528 219 6625ft 0kts
29-Sep-18 15:06 35.960015 -112.138850 220 6622ft 46kts
29-Sep-18 15:07 35.942908 -112.167298 243 7292ft 122kts
29-Sep-18 15:08 35.913760 -112.182838 184 8538ft 119kts
29-Sep-18 15:09 35.906880 -112.212372 290 9670ft 119kts
29-Sep-18 15:10 35.911938 -112.252247 263 10582ft 133kts
29-Sep-18 15:11 35.892194 -112.287575 232 11114ft 158kts
29-Sep-18 15:12 35.885168 -112.344245 287 11091ft 180kts
29-Sep-18 15:13 35.905394 -112.403973 255 9622ft 208kts
29-Sep-18 15:14 35.894288 -112.470288 264 9902ft 170kts
29-Sep-18 15:15 35.892708 -112.525517 250 10502ft 165kts
29-Sep-18 15:16 35.877889 -112.580431 251 10860ft 170kts
29-Sep-18 15:17 35.843931 -112.579106 96 10776ft 185kts
29-Sep-18 15:18 35.881477 -112.569882 303 10049ft 204kts
29-Sep-18 15:19 35.902965 -112.633842 258 9518ft 200kts
29-Sep-18 15:20 35.866413 -112.672362 189 10043ft 174kts
29-Sep-18 15:21 35.842463 -112.719336 247 10426ft 171kts
29-Sep-18 15:22 35.813802 -112.769542 240 10341ft 189kts
29-Sep-18 15:23 35.793466 -112.831279 252 9900ft 197kts
29-Sep-18 15:24 35.781352 -112.880196 253 10080ft 169kts
29-Sep-18 15:25 35.767130 -112.943792 254 10045ft 167kts
29-Sep-18 15:26 35.758319 -112.981633 253 9988ft 168kts
29-Sep-18 15:27 35.745446 -113.036446 253 9989ft 164kts
29-Sep-18 15:28 35.732773 -113.090190 253 10009ft 163kts
29-Sep-18 15:29 35.722306 -113.134483 253 10022ft 163kts
29-Sep-18 15:30 35.707470 -113.197119 253 10038ft 163kts
29-Sep-18 15:31 35.696907 -113.241623 253 10050ft 163kts
29-Sep-18 15:32 35.682051 -113.304072 253 10067ft 163kts
29-Sep-18 15:33 35.671385 -113.348812 253 10078ft 163kts
29-Sep-18 15:34 35.658607 -113.402305 253 10093ft 163kts
29-Sep-18 15:35 35.645671 -113.456342 253 10127ft 166kts
29-Sep-18 15:36 35.632543 -113.511061 253 10186ft 167kts
29-Sep-18 15:37 35.610016 -113.559233 223 10214ft 169kts
29-Sep-18 15:38 35.574167 -113.599480 222 10015ft 177kts
29-Sep-18 15:39 35.537457 -113.639905 222 9898ft 176kts
29-Sep-18 15:40 35.501543 -113.679297 221 9887ft 173kts
29-Sep-18 15:41 35.466486 -113.717686 221 9983ft 168kts
29-Sep-18 15:42 35.431690 -113.755743 221 10040ft 168kts
29-Sep-18 15:43 35.396382 -113.794314 221 10000ft 172kts
29-Sep-18 15:44 35.360641 -113.833308 221 9972ft 172kts
29-Sep-18 15:45 35.324994 -113.872151 221 9948ft 172kts
29-Sep-18 15:46 35.289517 -113.910761 221 10004ft 169kts
29-Sep-18 15:47 35.254566 -113.948753 221 10054ft 169kts
29-Sep-18 15:48 35.219095 -113.987264 221 10017ft 172kts
29-Sep-18 15:49 35.192226 -114.016405 221 9997ft 172kts
29-Sep-18 15:50 35.160666 -114.050599 221 9976ft 172kts
29-Sep-18 15:51 35.124854 -114.089355 221 9952ft 172kts
29-Sep-18 15:52 35.089052 -114.128052 221 9930ft 172kts
29-Sep-18 15:53 35.053257 -114.166694 221 9924ft 171kts
29-Sep-18 15:54 35.017876 -114.204621 221 10020ft 168kts
29-Sep-18 15:55 34.982272 -114.242869 221 9986ft 172kts
29-Sep-18 15:56 34.946311 -114.281520 221 9964ft 172kts
29-Sep-18 15:57 34.906562 -114.324191 221 8927ft 203kts
29-Sep-18 15:58 34.864654 -114.369106 221 7889ft 194kts
29-Sep-18 15:59 34.825038 -114.411509 221 6746ft 186kts
29-Sep-18 16:00 34.789241 -114.449753 221 6360ft 156kts
29-Sep-18 16:01 34.754291 -114.465658 160 6196ft 140kts
29-Sep-18 16:02 34.719142 -114.446397 153 5919ft 144kts
29-Sep-18 16:03 34.680178 -114.423400 154 5162ft 162kts
29-Sep-18 16:04 34.631374 -114.412703 187 2958ft 168kts
29-Sep-18 16:05 34.592576 -114.410280 163 1928ft 121kts
29-Sep-18 16:06 34.573027 -114.381299 119 1336ft 118kts
29-Sep-18 16:07 34.547876 -114.364871 150 1106ft 90kts
29-Sep-18 16:08 34.558530 -114.349094 332 970ft 94kts
29-Sep-18 16:09 34.574813 -114.361164 20 761ft 25kts
29-Sep-18 16:10 34.574167 -114.361670 245 756ft 15kts
29-Sep-18 16:11 34.571886 -114.360761 149 749ft 11kts
29-Sep-18 16:12 34.570118 -114.360063 170 743ft 10kts
29-Sep-18 16:13 34.569183 -114.359362 58 743ft 0kts
29-Sep-18 16:14 34.569115 -114.359496 58 742ft 0kts
29-Sep-18 16:15 34.569050 -114.359623 58 741ft 0kts
29-Sep-18 16:16 34.569238 -114.359268 56 744ft 0kts
29-Sep-18 16:17 34.569237 -114.359268 56 744ft 0kts
29-Sep-18 16:18 34.569237 -114.359268 56 744ft 0kts
29-Sep-18 16:19 34.569237 -114.359268 56 744ft 0kts
29-Sep-18 16:20 34.569237 -114.359268 56 744ft 0kts
29-Sep-18 16:21 34.569237 -114.359268 56 744ft 0kts
29-Sep-18 16:22 34.569237 -114.359268 56 744ft 0kts
29-Sep-18 16:23 34.569237 -114.359268 56 744ft 0kts
29-Sep-18 16:24 34.569237 -114.359268 56 744ft 0kts

Navigation Log

Ident Type
Flight plan parsing failed, navigation log unavailable